Time,TemperatureF,DewpointF,PressureIn,WindDirection,WindDirectionDegrees,WindSpeedMPH,WindSpeedGustMPH,Humidity,HourlyPrecipIn,Conditions,Clouds,dailyrainin,SolarRadiationWatts/m^2,SoftwareType,DateUTC
2013-06-30 00:02:00,64.0,42.0,-100.00,North,357,2.0,10.0,45,0.00,,,0.00,0.000000,,2013-06-30 06:02:00,
2013-06-30 00:12:00,64.0,42.0,-100.00,North,357,2.0,10.0,45,0.00,,,0.00,0.000000,,2013-06-30 06:12:00,
2013-06-30 00:23:00,64.0,42.0,-100.00,North,357,2.0,10.0,45,0.00,,,0.00,0.000000,,2013-06-30 06:23:00,
2013-06-30 00:34:00,64.0,42.0,-100.00,North,357,2.0,10.0,45,0.00,,,0.00,0.000000,,2013-06-30 06:34:00,
2013-06-30 01:02:00,62.0,43.0,-100.00,NNW,347,2.0,6.0,49,0.00,,,0.00,0.000000,,2013-06-30 07:02:00,
2013-06-30 01:12:00,62.0,43.0,-100.00,NNW,347,2.0,6.0,49,0.00,,,0.00,0.000000,,2013-06-30 07:12:00,
2013-06-30 01:22:00,62.0,43.0,-100.00,NNW,347,2.0,6.0,49,0.00,,,0.00,0.000000,,2013-06-30 07:22:00,
2013-06-30 01:33:00,62.0,43.0,-100.00,NNW,347,2.0,6.0,49,0.00,,,0.00,0.000000,,2013-06-30 07:33:00,
2013-06-30 02:02:00,61.0,44.0,-100.00,North,349,2.0,6.0,54,0.00,,,0.00,0.000000,,2013-06-30 08:02:00,
2013-06-30 02:12:00,61.0,44.0,-100.00,North,349,2.0,6.0,54,0.00,,,0.00,0.000000,,2013-06-30 08:12:00,
2013-06-30 02:22:00,61.0,44.0,-100.00,North,349,2.0,6.0,54,0.00,,,0.00,0.000000,,2013-06-30 08:22:00,
2013-06-30 02:33:00,61.0,44.0,-100.00,North,349,2.0,6.0,54,0.00,,,0.00,0.000000,,2013-06-30 08:33:00,
2013-06-30 03:01:00,58.0,44.0,-100.00,NNW,338,2.0,5.0,60,0.00,,,0.00,0.000000,,2013-06-30 09:01:00,
2013-06-30 03:12:00,58.0,44.0,-100.00,NNW,338,2.0,5.0,60,0.00,,,0.00,0.000000,,2013-06-30 09:12:00,
2013-06-30 03:23:00,58.0,44.0,-100.00,NNW,338,2.0,5.0,60,0.00,,,0.00,0.000000,,2013-06-30 09:23:00,
2013-06-30 03:33:00,58.0,44.0,-100.00,NNW,338,2.0,5.0,60,0.00,,,0.00,0.000000,,2013-06-30 09:33:00,
2013-06-30 04:02:00,58.0,45.0,-100.00,NNW,339,3.0,5.0,62,0.00,,,0.00,0.000000,,2013-06-30 10:02:00,
2013-06-30 04:11:00,58.0,45.0,-100.00,NNW,339,3.0,5.0,62,0.00,,,0.00,0.000000,,2013-06-30 10:11:00,
2013-06-30 04:22:00,58.0,45.0,-100.00,NNW,339,3.0,5.0,62,0.00,,,0.00,0.000000,,2013-06-30 10:22:00,
2013-06-30 04:33:00,58.0,45.0,-100.00,NNW,339,3.0,5.0,62,0.00,,,0.00,0.000000,,2013-06-30 10:33:00,
2013-06-30 05:02:00,59.0,47.0,-100.00,WSW,244,2.0,4.0,65,0.00,,,0.00,0.000000,,2013-06-30 11:02:00,
2013-06-30 05:11:00,59.0,47.0,-100.00,WSW,244,2.0,4.0,65,0.00,,,0.00,0.000000,,2013-06-30 11:11:00,
2013-06-30 05:22:00,59.0,47.0,-100.00,WSW,244,2.0,4.0,65,0.00,,,0.00,0.000000,,2013-06-30 11:22:00,
2013-06-30 05:33:00,59.0,47.0,-100.00,WSW,244,2.0,4.0,65,0.00,,,0.00,0.000000,,2013-06-30 11:33:00,
2013-06-30 06:02:00,59.0,47.0,-100.00,WNW,298,1.0,3.0,65,0.00,,,0.00,0.000000,,2013-06-30 12:02:00,
2013-06-30 06:11:00,59.0,47.0,-100.00,WNW,298,1.0,3.0,65,0.00,,,0.00,0.000000,,2013-06-30 12:11:00,
2013-06-30 06:24:00,59.0,47.0,-100.00,WNW,298,1.0,3.0,65,0.00,,,0.00,0.000000,,2013-06-30 12:24:00,
2013-06-30 06:33:00,59.0,47.0,-100.00,WNW,298,1.0,3.0,65,0.00,,,0.00,0.000000,,2013-06-30 12:33:00,
2013-06-30 07:02:00,59.0,47.0,-100.00,NW,314,1.0,2.0,65,0.00,,,0.00,0.000000,,2013-06-30 13:02:00,
2013-06-30 07:12:00,59.0,47.0,-100.00,NW,314,1.0,2.0,65,0.00,,,0.00,0.000000,,2013-06-30 13:12:00,
2013-06-30 07:22:00,59.0,47.0,-100.00,NW,314,1.0,2.0,65,0.00,,,0.00,0.000000,,2013-06-30 13:22:00,
2013-06-30 07:33:00,59.0,47.0,-100.00,NW,314,1.0,2.0,65,0.00,,,0.00,0.000000,,2013-06-30 13:33:00,
2013-06-30 08:02:00,59.0,49.0,-100.00,North,5,1.0,4.0,69,0.00,,,0.00,27.000000,,2013-06-30 14:02:00,
2013-06-30 08:11:00,59.0,49.0,-100.00,North,5,1.0,4.0,69,0.00,,,0.00,27.000000,,2013-06-30 14:11:00,
2013-06-30 08:22:00,59.0,49.0,-100.00,North,5,1.0,4.0,69,0.00,,,0.00,27.000000,,2013-06-30 14:22:00,
2013-06-30 08:33:00,59.0,49.0,-100.00,North,5,1.0,4.0,69,0.00,,,0.00,27.000000,,2013-06-30 14:33:00,
2013-06-30 09:02:00,62.0,47.0,-100.00,NNE,33,2.0,4.0,59,0.00,,,0.00,54.000000,,2013-06-30 15:02:00,
2013-06-30 09:12:00,62.0,47.0,-100.00,NNE,33,2.0,4.0,59,0.00,,,0.00,54.000000,,2013-06-30 15:12:00,
2013-06-30 09:23:00,62.0,47.0,-100.00,NNE,33,2.0,4.0,59,0.00,,,0.00,54.000000,,2013-06-30 15:23:00,
2013-06-30 09:34:00,62.0,47.0,-100.00,NNE,33,2.0,4.0,59,0.00,,,0.00,54.000000,,2013-06-30 15:34:00,
2013-06-30 10:01:00,67.0,49.0,-100.00,SSE,147,4.0,9.0,52,0.00,,,0.00,391.000000,,2013-06-30 16:01:00,
2013-06-30 10:11:00,67.0,49.0,-100.00,SSE,147,4.0,9.0,52,0.00,,,0.00,391.000000,,2013-06-30 16:11:00,
2013-06-30 10:21:00,67.0,49.0,-100.00,SSE,147,4.0,9.0,52,0.00,,,0.00,391.000000,,2013-06-30 16:21:00,
2013-06-30 10:34:00,67.0,49.0,-100.00,SSE,147,4.0,9.0,52,0.00,,,0.00,391.000000,,2013-06-30 16:34:00,
2013-06-30 11:02:00,68.0,48.0,-100.00,SE,133,7.0,13.0,48,0.00,,,0.00,449.000000,,2013-06-30 17:02:00,
2013-06-30 11:11:00,68.0,48.0,-100.00,SE,133,7.0,13.0,48,0.00,,,0.00,449.000000,,2013-06-30 17:11:00,
2013-06-30 11:23:00,68.0,48.0,-100.00,SE,133,7.0,13.0,48,0.00,,,0.00,449.000000,,2013-06-30 17:23:00,
2013-06-30 11:34:00,68.0,48.0,-100.00,SE,133,7.0,13.0,48,0.00,,,0.00,449.000000,,2013-06-30 17:34:00,
2013-06-30 12:02:00,71.0,49.0,-100.00,SE,124,8.0,15.0,46,0.00,,,0.00,256.000000,,2013-06-30 18:02:00,
2013-06-30 12:12:00,71.0,49.0,-100.00,SE,124,8.0,15.0,46,0.00,,,0.00,256.000000,,2013-06-30 18:12:00,
2013-06-30 12:22:00,71.0,49.0,-100.00,SE,124,8.0,15.0,46,0.00,,,0.00,256.000000,,2013-06-30 18:22:00,
2013-06-30 12:34:00,71.0,49.0,-100.00,SE,124,8.0,15.0,46,0.00,,,0.00,256.000000,,2013-06-30 18:34:00,
2013-06-30 13:01:00,71.0,48.0,-100.00,East,97,7.0,20.0,44,0.00,,,0.00,97.000000,,2013-06-30 19:01:00,
2013-06-30 13:11:00,71.0,48.0,-100.00,East,97,7.0,20.0,44,0.00,,,0.00,97.000000,,2013-06-30 19:11:00,
2013-06-30 13:22:00,71.0,48.0,-100.00,East,97,7.0,20.0,44,0.00,,,0.00,97.000000,,2013-06-30 19:22:00,
2013-06-30 13:33:00,71.0,48.0,-100.00,East,97,7.0,20.0,44,0.00,,,0.00,97.000000,,2013-06-30 19:33:00,
2013-06-30 14:02:00,72.0,49.0,-100.00,NW,306,4.0,17.0,44,0.00,,,0.00,12.000000,,2013-06-30 20:02:00,
2013-06-30 14:11:00,72.0,49.0,-100.00,NW,306,4.0,17.0,44,0.00,,,0.00,12.000000,,2013-06-30 20:11:00,
2013-06-30 14:22:00,72.0,49.0,-100.00,NW,306,4.0,17.0,44,0.00,,,0.00,12.000000,,2013-06-30 20:22:00,
2013-06-30 14:34:00,72.0,49.0,-100.00,NW,306,4.0,17.0,44,0.00,,,0.00,12.000000,,2013-06-30 20:34:00,
2013-06-30 15:01:00,71.0,49.0,-100.00,ENE,70,5.0,21.0,46,0.00,,,0.00,8.000000,,2013-06-30 21:01:00,
2013-06-30 15:11:00,71.0,49.0,-100.00,ENE,70,5.0,21.0,46,0.00,,,0.00,8.000000,,2013-06-30 21:11:00,
2013-06-30 15:22:00,71.0,49.0,-100.00,ENE,70,5.0,21.0,46,0.00,,,0.00,8.000000,,2013-06-30 21:22:00,
2013-06-30 15:34:00,71.0,49.0,-100.00,ENE,70,5.0,21.0,46,0.00,,,0.00,8.000000,,2013-06-30 21:34:00,
2013-06-30 16:01:00,73.0,50.0,-100.00,ESE,104,6.0,14.0,45,0.00,,,0.00,0.000000,,2013-06-30 22:01:00,
2013-06-30 16:11:00,73.0,50.0,-100.00,ESE,104,6.0,14.0,45,0.00,,,0.00,0.000000,,2013-06-30 22:11:00,
2013-06-30 16:22:00,73.0,50.0,-100.00,ESE,104,6.0,14.0,45,0.00,,,0.00,0.000000,,2013-06-30 22:22:00,
2013-06-30 16:34:00,73.0,50.0,-100.00,ESE,104,6.0,14.0,45,0.00,,,0.00,0.000000,,2013-06-30 22:34:00,
2013-06-30 17:01:00,73.0,49.0,-100.00,ENE,63,5.0,14.0,43,0.00,,,0.00,0.000000,,2013-06-30 23:01:00,
2013-06-30 17:11:00,73.0,49.0,-100.00,ENE,63,5.0,14.0,43,0.00,,,0.00,0.000000,,2013-06-30 23:11:00,
2013-06-30 17:22:00,73.0,49.0,-100.00,ENE,63,5.0,14.0,43,0.00,,,0.00,0.000000,,2013-06-30 23:22:00,
2013-06-30 17:33:00,73.0,49.0,-100.00,ENE,63,5.0,14.0,43,0.00,,,0.00,0.000000,,2013-06-30 23:33:00,
2013-06-30 18:01:00,71.0,49.0,-100.00,SE,134,4.0,13.0,46,0.00,,,0.00,0.000000,,2013-07-01 00:01:00,
2013-06-30 18:11:00,71.0,49.0,-100.00,SE,134,4.0,13.0,46,0.00,,,0.00,0.000000,,2013-07-01 00:11:00,
2013-06-30 18:22:00,71.0,49.0,-100.00,SE,134,4.0,13.0,46,0.00,,,0.00,0.000000,,2013-07-01 00:22:00,
2013-06-30 18:33:00,71.0,49.0,-100.00,SE,134,4.0,13.0,46,0.00,,,0.00,0.000000,,2013-07-01 00:33:00,
2013-06-30 19:01:00,71.0,50.0,-100.00,East,95,3.0,16.0,47,0.00,,,0.00,0.000000,,2013-07-01 01:01:00,
2013-06-30 19:11:00,71.0,50.0,-100.00,East,95,3.0,16.0,47,0.00,,,0.00,0.000000,,2013-07-01 01:11:00,
2013-06-30 19:22:00,71.0,50.0,-100.00,East,95,3.0,16.0,47,0.00,,,0.00,0.000000,,2013-07-01 01:22:00,
2013-06-30 19:33:00,71.0,50.0,-100.00,East,95,3.0,16.0,47,0.00,,,0.00,0.000000,,2013-07-01 01:33:00,
2013-06-30 20:02:00,72.0,49.0,-100.00,ENE,61,4.0,15.0,45,0.00,,,0.00,0.000000,,2013-07-01 02:02:00,
2013-06-30 20:11:00,72.0,49.0,-100.00,ENE,61,4.0,15.0,45,0.00,,,0.00,0.000000,,2013-07-01 02:11:00,
2013-06-30 20:22:00,72.0,49.0,-100.00,ENE,61,4.0,15.0,45,0.00,,,0.00,0.000000,,2013-07-01 02:22:00,
2013-06-30 20:33:00,72.0,49.0,-100.00,ENE,61,4.0,15.0,45,0.00,,,0.00,0.000000,,2013-07-01 02:33:00,
2013-06-30 21:01:00,68.0,49.0,-100.00,West,263,3.0,11.0,51,0.00,,,0.00,0.000000,,2013-07-01 03:01:00,
2013-06-30 21:11:00,68.0,49.0,-100.00,West,263,3.0,11.0,51,0.00,,,0.00,0.000000,,2013-07-01 03:11:00,
2013-06-30 21:23:00,68.0,49.0,-100.00,West,263,3.0,11.0,51,0.00,,,0.00,0.000000,,2013-07-01 03:23:00,
2013-06-30 21:33:00,68.0,49.0,-100.00,West,263,3.0,11.0,51,0.00,,,0.00,0.000000,,2013-07-01 03:33:00,
2013-06-30 22:01:00,64.0,47.0,-100.00,East,91,1.0,9.0,55,0.00,,,0.00,0.000000,,2013-07-01 04:01:00,
2013-06-30 22:11:00,64.0,47.0,-100.00,East,91,1.0,9.0,55,0.00,,,0.00,0.000000,,2013-07-01 04:11:00,
2013-06-30 22:22:00,64.0,47.0,-100.00,East,91,1.0,9.0,55,0.00,,,0.00,0.000000,,2013-07-01 04:22:00,
2013-06-30 22:32:00,64.0,47.0,-100.00,East,91,1.0,9.0,55,0.00,,,0.00,0.000000,,2013-07-01 04:32:00,
2013-06-30 23:01:00,65.0,48.0,-100.00,SW,235,1.0,6.0,54,0.00,,,0.00,0.000000,,2013-07-01 05:01:00,
2013-06-30 23:11:00,65.0,48.0,-100.00,SW,235,1.0,6.0,54,0.00,,,0.00,0.000000,,2013-07-01 05:11:00,
2013-06-30 23:22:00,65.0,48.0,-100.00,SW,235,1.0,6.0,54,0.00,,,0.00,0.000000,,2013-07-01 05:22:00,
2013-06-30 23:33:00,65.0,48.0,-100.00,SW,235,1.0,6.0,54,0.00,,,0.00,0.000000,,2013-07-01 05:33:00,